KTAD/TAD METAR and TAF weather

Enter ICAO airport designator
Station Type Date Time Source
KTAD METAR 2024/02/26 16:54 UTC NOAA

KTAD 261654Z AUTO 26029G43KT 10SM CLR 17/M04 A2985 RMK AO2 PK WND 26046/1627 SLP047 T01721044


Station Type Date Time Source
KTAD Decoded METAR 2024/02/26 16:54 UTC NOAA

Trinidad, Perry Stokes Airport, CO, United States (KTAD) 37-16N 104-26W
Feb 26, 2024 - 11:54 AM EST / 2024.02.26 1654 UTC
Wind: from the W (260 degrees) at 33 MPH (29 KT) gusting to 49 MPH (43 KT):0
Visibility: 10 mile(s):0
Sky conditions: clear
Temperature: 63.0 F (17.2 C)
Dew Point: 24.1 F (-4.4 C)
Relative Humidity: 22%
Pressure (altimeter): 29.85 in. Hg (1010 hPa)
ob: KTAD 261654Z AUTO 26029G43KT 10SM CLR 17/M04 A2985 RMK AO2 PK WND 26046/1627 SLP047 T01721044
cycle: 17

Station Type Date Time Source
KTAD TAF UTC NOAA

Error!

Example: see airport list